createdAt,value
2019-01-24T00:01:45.911Z,35.70
2019-01-24T00:04:16.743Z,35.33
2019-01-24T00:06:41.076Z,34.30
2019-01-24T00:09:07.914Z,33.93
2019-01-24T00:11:34.790Z,33.30
2019-01-24T00:14:01.864Z,32.37
2019-01-24T00:16:28.507Z,35.60
2019-01-24T00:18:55.268Z,31.47
2019-01-24T00:21:21.902Z,32.17
2019-01-24T00:23:48.490Z,32.67
2019-01-24T00:26:15.096Z,30.50
2019-01-24T00:28:42.287Z,31.93
2019-01-24T00:31:09.491Z,32.93
2019-01-24T00:33:36.132Z,33.50
2019-01-24T00:36:02.953Z,30.77
2019-01-24T00:38:29.570Z,31.43
2019-01-24T00:40:56.246Z,31.20
2019-01-24T00:43:22.983Z,33.60
2019-01-24T00:45:49.742Z,34.33
2019-01-24T00:48:16.272Z,32.07
2019-01-24T00:50:43.592Z,31.53
2019-01-24T00:53:10.352Z,34.40
2019-01-24T00:55:37.205Z,33.23
2019-01-24T00:58:04.224Z,33.67
2019-01-24T01:00:30.872Z,35.53
2019-01-24T01:02:57.411Z,33.33
2019-01-24T01:05:24.059Z,33.37
2019-01-24T01:07:51.076Z,32.27
2019-01-24T01:10:17.789Z,32.50
2019-01-24T01:12:44.457Z,34.70
2019-01-24T01:15:16.165Z,31.17
2019-01-24T01:17:43.359Z,34.33
2019-01-24T01:20:15.318Z,37.10
2019-01-24T01:22:42.121Z,34.30
2019-01-24T01:25:10.019Z,33.80
2019-01-24T01:27:36.704Z,33.77
2019-01-24T01:30:06.006Z,31.47
2019-01-24T01:32:32.631Z,31.10
2019-01-24T01:34:59.160Z,33.53
2019-01-24T01:37:25.833Z,35.07
2019-01-24T01:39:52.379Z,33.40
2019-01-24T01:42:18.924Z,31.03
2019-01-24T01:44:46.120Z,36.17
2019-01-24T01:47:12.648Z,34.67
2019-01-24T01:49:40.092Z,36.33
2019-01-24T01:52:06.995Z,32.50
2019-01-24T01:54:33.569Z,33.03
2019-01-24T01:57:00.315Z,31.70
2019-01-24T01:59:26.923Z,35.33
2019-01-24T02:01:53.502Z,31.60
2019-01-24T02:04:20.072Z,31.67
2019-01-24T02:06:46.981Z,29.90
2019-01-24T02:09:13.570Z,32.30
2019-01-24T02:11:40.196Z,33.57
2019-01-24T02:14:06.837Z,33.43
2019-01-24T02:16:33.845Z,32.90
2019-01-24T02:19:00.574Z,34.53
2019-01-24T02:21:28.483Z,32.07
2019-01-24T02:23:54.997Z,32.93
2019-01-24T02:26:21.499Z,32.97
2019-01-24T02:28:48.017Z,30.33
2019-01-24T02:31:14.615Z,32.80
2019-01-24T02:33:41.144Z,30.67
2019-01-24T02:36:07.862Z,32.40
2019-01-24T02:38:34.678Z,31.10
2019-01-24T02:41:01.330Z,31.50
2019-01-24T02:43:27.856Z,32.83
2019-01-24T02:45:54.448Z,31.40
2019-01-24T02:48:20.987Z,29.87
2019-01-24T02:50:47.919Z,32.57
2019-01-24T02:53:14.448Z,31.40
2019-01-24T02:55:41.056Z,32.00
2019-01-24T02:58:07.625Z,32.17
2019-01-24T03:00:34.175Z,32.63
2019-01-24T03:03:00.836Z,31.77
2019-01-24T03:05:27.420Z,31.60
2019-01-24T03:07:53.947Z,30.43
2019-01-24T03:10:20.639Z,30.37
2019-01-24T03:12:47.807Z,31.00
2019-01-24T03:15:19.282Z,31.57
2019-01-24T03:17:46.184Z,31.20
2019-01-24T03:20:13.123Z,32.40
2019-01-24T03:22:39.707Z,32.10
2019-01-24T03:25:06.824Z,30.67
2019-01-24T03:27:33.597Z,31.57
2019-01-24T03:30:00.445Z,32.03
2019-01-24T03:32:27.288Z,29.73
2019-01-24T03:34:53.931Z,31.10
2019-01-24T03:37:20.538Z,29.73
2019-01-24T03:39:47.118Z,32.60
2019-01-24T03:42:13.629Z,32.43
2019-01-24T03:44:40.350Z,33.27
2019-01-24T03:47:06.937Z,31.93
2019-01-24T03:49:33.469Z,33.57
2019-01-24T03:51:59.965Z,32.50
2019-01-24T03:54:26.475Z,32.00
2019-01-24T03:56:53.552Z,28.63
2019-01-24T03:59:20.268Z,31.63
2019-01-24T04:01:47.058Z,33.10
2019-01-24T04:04:14.075Z,31.33
2019-01-24T04:06:41.015Z,31.27
2019-01-24T04:09:07.727Z,30.53
2019-01-24T04:11:34.213Z,31.20
2019-01-24T04:14:00.745Z,32.43
2019-01-24T04:16:27.660Z,30.87
2019-01-24T04:18:54.773Z,30.37
2019-01-24T04:21:21.246Z,31.07
2019-01-24T04:23:47.849Z,28.23
2019-01-24T04:26:14.982Z,31.67
2019-01-24T04:28:41.469Z,29.10
2019-01-24T04:31:07.972Z,31.40
2019-01-24T04:33:34.509Z,30.50
2019-01-24T04:36:01.064Z,29.87
2019-01-24T04:38:27.822Z,29.63
2019-01-24T04:40:54.497Z,32.20
2019-01-24T04:43:21.592Z,29.73
2019-01-24T04:45:48.273Z,28.93
2019-01-24T04:48:16.062Z,29.60
2019-01-24T04:50:42.589Z,28.77
2019-01-24T04:53:09.630Z,29.93
2019-01-24T04:55:37.453Z,29.40
2019-01-24T04:58:04.012Z,30.33
2019-01-24T05:00:30.800Z,30.67
2019-01-24T05:02:57.736Z,30.47
2019-01-24T05:05:28.039Z,30.03
2019-01-24T05:07:52.713Z,32.07
2019-01-24T05:10:19.810Z,28.17
2019-01-24T05:12:46.308Z,31.33
2019-01-24T05:15:14.023Z,31.20
2019-01-24T05:17:40.551Z,28.40
2019-01-24T05:20:08.931Z,29.40
2019-01-24T05:22:35.466Z,29.43
2019-01-24T05:25:02.263Z,29.37
2019-01-24T05:27:30.866Z,30.13
2019-01-24T05:29:57.405Z,30.90
2019-01-24T05:32:23.929Z,30.47
2019-01-24T05:34:50.509Z,31.77
2019-01-24T05:37:19.505Z,29.03
2019-01-24T05:39:46.172Z,28.73
2019-01-24T05:42:13.767Z,29.60
2019-01-24T05:44:40.500Z,28.13
2019-01-24T05:47:07.038Z,29.83
2019-01-24T05:49:33.866Z,30.63
2019-01-24T05:52:00.460Z,30.70
2019-01-24T05:54:26.962Z,31.93
2019-01-24T05:56:55.578Z,31.07
2019-01-24T05:59:22.234Z,32.77
2019-01-24T06:01:49.653Z,29.83
2019-01-24T06:04:16.290Z,31.23
2019-01-24T06:06:45.923Z,31.20
2019-01-24T06:09:12.421Z,29.93
2019-01-24T06:11:39.335Z,31.37
2019-01-24T06:14:06.011Z,29.37
2019-01-24T06:16:33.142Z,30.60
2019-01-24T06:18:59.919Z,29.23
2019-01-24T06:21:26.526Z,29.30
2019-01-24T06:23:53.058Z,30.17
2019-01-24T06:26:20.005Z,30.90
2019-01-24T06:28:46.793Z,31.20
2019-01-24T06:31:13.342Z,29.80
2019-01-24T06:33:39.893Z,31.07
2019-01-24T06:36:06.433Z,29.40
2019-01-24T06:38:33.292Z,31.67
2019-01-24T06:40:59.845Z,31.30
2019-01-24T06:43:26.420Z,31.27
2019-01-24T06:45:55.058Z,30.03
2019-01-24T06:48:21.595Z,31.37
2019-01-24T06:50:54.520Z,29.67
2019-01-24T06:53:21.286Z,29.40
2019-01-24T06:55:48.398Z,32.37
2019-01-24T06:58:14.982Z,30.97
2019-01-24T07:00:41.506Z,30.87
2019-01-24T07:03:08.019Z,30.73
2019-01-24T07:05:35.237Z,32.90
2019-01-24T07:08:01.812Z,31.53
2019-01-24T07:10:28.622Z,28.90
2019-01-24T07:12:55.198Z,30.80
2019-01-24T07:15:22.460Z,33.60
2019-01-24T07:17:49.128Z,31.60
2019-01-24T07:20:16.877Z,32.13
2019-01-24T07:22:43.526Z,31.73
2019-01-24T07:25:13.500Z,31.17
2019-01-24T07:27:40.646Z,31.40
2019-01-24T07:30:09.602Z,35.80
2019-01-24T07:32:36.547Z,32.57
2019-01-24T07:35:04.815Z,34.03
2019-01-24T07:37:31.555Z,32.60
2019-01-24T07:39:58.113Z,33.63
2019-01-24T07:42:29.307Z,32.50
2019-01-24T07:44:55.937Z,32.13
2019-01-24T07:47:22.950Z,33.10
2019-01-24T07:49:49.449Z,35.97
2019-01-24T07:52:17.457Z,31.57
2019-01-24T07:54:44.345Z,33.03
2019-01-24T07:57:10.900Z,33.30
2019-01-24T07:59:37.957Z,33.87
2019-01-24T08:02:04.610Z,33.53
2019-01-24T08:04:31.275Z,33.80
2019-01-24T08:06:58.151Z,35.63
2019-01-24T08:09:24.792Z,36.03
2019-01-24T08:11:51.479Z,41.93
2019-01-24T08:14:18.379Z,43.37
2019-01-24T08:16:45.446Z,43.13
2019-01-24T08:19:12.179Z,35.60
2019-01-24T08:21:38.803Z,33.80
2019-01-24T08:24:05.433Z,31.73
2019-01-24T08:26:32.251Z,31.13
2019-01-24T08:28:59.043Z,34.07
2019-01-24T08:31:27.533Z,31.90
2019-01-24T08:33:54.263Z,32.03
2019-01-24T08:36:20.982Z,31.53
2019-01-24T08:38:50.335Z,35.27
2019-01-24T08:41:17.210Z,35.50
2019-01-24T08:43:43.893Z,34.97
2019-01-24T08:46:20.303Z,36.17
2019-01-24T08:48:47.397Z,42.07
2019-01-24T08:51:13.935Z,49.27
2019-01-24T08:53:40.482Z,42.57
2019-01-24T08:56:07.482Z,38.63
2019-01-24T08:58:34.268Z,34.93
2019-01-24T09:01:00.774Z,35.03
2019-01-24T09:03:27.787Z,32.73
2019-01-24T09:05:54.401Z,34.70
2019-01-24T09:08:20.928Z,32.63
2019-01-24T09:10:47.627Z,33.17
2019-01-24T09:13:14.161Z,33.17
2019-01-24T09:15:40.636Z,34.03
2019-01-24T09:18:07.871Z,34.07
2019-01-24T09:20:34.841Z,33.03
2019-01-24T09:23:01.871Z,33.80
2019-01-24T09:25:28.775Z,31.77
2019-01-24T09:27:55.459Z,33.60
2019-01-24T09:30:23.261Z,29.50
2019-01-24T09:32:49.826Z,30.83
2019-01-24T09:35:16.502Z,32.77
2019-01-24T09:37:43.056Z,33.40
2019-01-24T09:40:10.824Z,31.40
2019-01-24T09:42:39.448Z,32.37
2019-01-24T09:45:08.919Z,33.83
2019-01-24T09:47:35.450Z,32.90
2019-01-24T09:50:06.305Z,30.67
2019-01-24T09:52:33.190Z,31.20
2019-01-24T09:54:59.832Z,32.23
2019-01-24T09:57:26.777Z,33.63
2019-01-24T09:59:53.501Z,30.63
2019-01-24T10:02:20.339Z,31.33
2019-01-24T10:04:47.069Z,33.87
2019-01-24T10:07:13.654Z,31.20
2019-01-24T10:09:40.535Z,33.83
2019-01-24T10:12:07.574Z,32.03
2019-01-24T10:14:34.462Z,30.93
2019-01-24T10:17:00.955Z,31.50
2019-01-24T10:19:27.662Z,33.50
2019-01-24T10:21:54.201Z,31.70
2019-01-24T10:24:21.352Z,33.23
2019-01-24T10:26:47.930Z,33.67
2019-01-24T10:29:14.575Z,33.30
2019-01-24T10:31:41.280Z,32.93
2019-01-24T10:34:07.961Z,31.27
2019-01-24T10:36:43.113Z,31.17
2019-01-24T10:39:09.062Z,28.50
2019-01-24T10:41:35.556Z,32.37
2019-01-24T10:44:02.367Z,32.20
2019-01-24T10:46:29.251Z,25.70
2019-01-24T10:48:57.123Z,29.70
2019-01-24T10:51:27.011Z,26.83
2019-01-24T10:53:53.575Z,27.23
2019-01-24T10:56:20.394Z,28.83
2019-01-24T10:58:47.036Z,28.83
2019-01-24T11:01:13.779Z,28.63
2019-01-24T11:03:40.428Z,27.83
2019-01-24T11:06:24.936Z,26.60
2019-01-24T11:08:55.355Z,28.70
2019-01-24T11:11:22.620Z,27.93
2019-01-24T11:13:49.251Z,29.00
2019-01-24T11:16:15.739Z,29.67
2019-01-24T11:18:42.368Z,30.77
2019-01-24T11:21:09.063Z,28.67
2019-01-24T11:23:35.927Z,28.50
2019-01-24T11:26:03.686Z,28.50
2019-01-24T11:28:30.640Z,28.67
2019-01-24T11:30:57.287Z,27.87
2019-01-24T11:33:24.056Z,28.50
2019-01-24T11:35:51.082Z,27.70
2019-01-24T11:38:17.727Z,28.87
2019-01-24T11:40:48.433Z,29.83
2019-01-24T11:43:15.491Z,28.03
2019-01-24T11:45:42.961Z,29.73
2019-01-24T11:48:09.900Z,30.13
2019-01-24T11:50:36.479Z,29.47
2019-01-24T11:53:03.915Z,29.90
2019-01-24T11:55:30.538Z,29.33
2019-01-24T11:57:57.439Z,29.50
2019-01-24T12:00:32.196Z,29.23
2019-01-24T12:02:58.780Z,30.87
2019-01-24T12:05:25.547Z,29.17
2019-01-24T12:07:52.238Z,29.27
2019-01-24T12:10:20.553Z,29.83
2019-01-24T12:12:47.068Z,32.27
2019-01-24T12:15:15.388Z,28.17
2019-01-24T12:17:42.245Z,28.07
2019-01-24T12:20:11.930Z,31.73
2019-01-24T12:22:38.466Z,31.60
2019-01-24T12:25:05.761Z,32.93
2019-01-24T12:27:32.518Z,30.60
2019-01-24T12:29:59.247Z,30.37
2019-01-24T12:32:26.359Z,29.27
2019-01-24T12:34:52.878Z,31.40
2019-01-24T12:37:19.474Z,30.47
2019-01-24T12:39:46.305Z,31.30
2019-01-24T12:42:12.791Z,31.23
2019-01-24T12:44:39.352Z,31.37
2019-01-24T12:47:05.868Z,32.73
2019-01-24T12:49:32.513Z,32.20
2019-01-24T12:51:58.988Z,32.40
2019-01-24T12:54:25.833Z,31.90
2019-01-24T12:56:52.682Z,31.73
2019-01-24T12:59:19.635Z,32.97
2019-01-24T13:01:46.131Z,31.90
2019-01-24T13:04:12.883Z,31.27
2019-01-24T13:06:39.682Z,29.57
2019-01-24T13:09:06.727Z,32.60
2019-01-24T13:11:35.688Z,31.30
2019-01-24T13:14:02.614Z,31.53
2019-01-24T13:16:29.252Z,35.03
2019-01-24T13:18:56.072Z,30.90
2019-01-24T13:21:22.693Z,33.97
2019-01-24T13:23:49.184Z,30.37
2019-01-24T13:26:15.981Z,30.47
2019-01-24T13:28:43.035Z,32.23
2019-01-24T13:31:10.300Z,29.83
2019-01-24T13:33:37.036Z,31.80
2019-01-24T13:36:06.596Z,31.80
2019-01-24T13:38:33.552Z,33.37
2019-01-24T13:41:00.368Z,31.57
2019-01-24T13:43:29.322Z,32.20
2019-01-24T13:45:55.864Z,33.00
2019-01-24T13:48:22.453Z,33.37
2019-01-24T13:50:49.060Z,33.87
2019-01-24T13:53:15.655Z,33.83
2019-01-24T13:55:42.524Z,32.77
2019-01-24T13:58:09.553Z,31.57
2019-01-24T14:00:38.150Z,37.30
2019-01-24T14:03:17.409Z,33.77
2019-01-24T14:05:44.013Z,36.57
2019-01-24T14:08:10.875Z,33.87
2019-01-24T14:10:37.626Z,33.83
2019-01-24T14:13:04.535Z,32.53
2019-01-24T14:15:31.554Z,33.43
2019-01-24T14:17:58.388Z,35.50
2019-01-24T14:20:24.946Z,33.93
2019-01-24T14:22:51.972Z,33.43
2019-01-24T14:25:18.618Z,33.50
2019-01-24T14:27:45.424Z,32.57
2019-01-24T14:30:15.548Z,32.77
2019-01-24T14:36:25.464Z,33.07
2019-01-24T14:38:50.421Z,32.47
2019-01-24T14:41:16.924Z,33.77
2019-01-24T14:43:43.642Z,33.20
2019-01-24T14:46:10.188Z,33.63
2019-01-24T14:48:36.826Z,34.47
2019-01-24T14:51:04.627Z,35.30
2019-01-24T14:53:31.185Z,34.07
2019-01-24T14:55:58.022Z,35.20
2019-01-24T14:58:24.669Z,30.90
2019-01-24T15:01:02.110Z,31.97
2019-01-24T15:03:29.531Z,32.10
2019-01-24T15:05:56.401Z,33.80
2019-01-24T15:08:24.286Z,32.97
2019-01-24T15:10:52.919Z,35.07
2019-01-24T15:13:19.586Z,34.87
2019-01-24T15:15:46.200Z,35.47
2019-01-24T15:18:12.896Z,32.23
2019-01-24T15:20:39.672Z,34.47
2019-01-24T15:23:07.380Z,34.93
2019-01-24T15:25:34.049Z,32.47
2019-01-24T15:28:00.617Z,32.97
2019-01-24T15:30:27.766Z,35.93
2019-01-24T15:32:54.595Z,36.67
2019-01-24T15:35:21.089Z,34.70
2019-01-24T15:37:54.080Z,33.20
2019-01-24T15:40:18.728Z,34.73
2019-01-24T15:42:45.385Z,33.97
2019-01-24T15:45:12.507Z,36.13
2019-01-24T15:47:39.146Z,33.57
2019-01-24T15:50:07.201Z,37.17
2019-01-24T15:52:34.236Z,34.93
2019-01-24T15:55:01.973Z,35.17
2019-01-24T15:57:28.905Z,36.37
2019-01-24T15:59:56.581Z,33.80
2019-01-24T16:02:23.361Z,34.70
2019-01-24T16:04:49.948Z,35.30
2019-01-24T16:07:16.800Z,35.23
2019-01-24T16:09:43.363Z,34.60
2019-01-24T16:12:09.881Z,33.37
2019-01-24T16:14:36.463Z,34.27
2019-01-24T16:17:03.424Z,32.27
2019-01-24T16:19:30.261Z,35.20
2019-01-24T16:21:56.819Z,34.30
2019-01-24T16:24:23.491Z,31.73
2019-01-24T16:26:50.126Z,35.37
2019-01-24T16:29:16.630Z,32.10
2019-01-24T16:31:43.425Z,33.77
2019-01-24T16:34:10.444Z,34.00
2019-01-24T16:36:36.970Z,32.43
2019-01-24T16:39:07.092Z,32.53
2019-01-24T16:41:33.775Z,33.43
2019-01-24T16:44:00.348Z,33.93
2019-01-24T16:46:26.960Z,33.70
2019-01-24T16:48:53.618Z,33.70
2019-01-24T16:51:21.644Z,34.97
2019-01-24T16:53:48.346Z,34.73
2019-01-24T16:56:19.478Z,34.53
2019-01-24T16:58:46.243Z,32.67
2019-01-24T17:01:22.265Z,35.27
2019-01-24T17:03:49.015Z,31.23
2019-01-24T17:06:16.026Z,33.17
2019-01-24T17:08:43.336Z,31.93
2019-01-24T17:11:10.247Z,31.83
2019-01-24T17:13:36.879Z,30.97
2019-01-24T17:16:03.919Z,29.30
2019-01-24T17:18:30.732Z,30.93
2019-01-24T17:20:57.336Z,31.63
2019-01-24T17:23:23.996Z,30.00
2019-01-24T17:25:50.608Z,29.77
2019-01-24T17:28:17.227Z,33.57
2019-01-24T17:30:44.062Z,31.63
2019-01-24T17:33:10.691Z,29.60
2019-01-24T17:35:37.208Z,31.33
2019-01-24T17:38:04.011Z,31.73
2019-01-24T17:40:30.821Z,31.43
2019-01-24T17:42:57.599Z,33.83
2019-01-24T17:45:24.647Z,32.00
2019-01-24T17:47:51.346Z,34.30
2019-01-24T17:50:18.034Z,30.67
2019-01-24T17:52:44.726Z,31.67
2019-01-24T17:55:17.142Z,31.83
2019-01-24T17:57:44.073Z,31.57
2019-01-24T18:00:15.233Z,31.80
2019-01-24T18:02:42.920Z,31.67
2019-01-24T18:05:10.236Z,32.77
2019-01-24T18:07:36.835Z,33.33
2019-01-24T18:10:14.055Z,32.13
2019-01-24T18:12:36.495Z,34.60
2019-01-24T18:15:06.501Z,32.87
2019-01-24T18:17:33.025Z,32.50
2019-01-24T18:19:59.863Z,31.33
2019-01-24T18:22:26.580Z,33.33
2019-01-24T18:24:53.120Z,31.33
2019-01-24T18:27:19.995Z,32.03
2019-01-24T18:29:46.532Z,31.63
2019-01-24T18:32:13.408Z,29.43
2019-01-24T18:34:40.086Z,31.93
2019-01-24T18:37:06.822Z,32.17
2019-01-24T18:39:33.365Z,29.73
2019-01-24T18:42:00.921Z,28.90
2019-01-24T18:44:27.682Z,29.90
2019-01-24T18:46:54.288Z,32.20
2019-01-24T18:49:21.577Z,29.03
2019-01-24T18:51:48.165Z,32.27
2019-01-24T18:54:14.771Z,30.97
2019-01-24T18:56:41.679Z,33.27
2019-01-24T18:59:08.624Z,32.60
2019-01-24T19:01:35.457Z,34.83
2019-01-24T19:04:02.017Z,34.43
2019-01-24T19:06:29.599Z,34.07
2019-01-24T19:08:56.294Z,33.73
2019-01-24T19:11:27.159Z,33.50
2019-01-24T19:13:57.045Z,32.70
2019-01-24T19:16:24.921Z,34.87
2019-01-24T19:18:53.958Z,31.63
2019-01-24T19:21:26.842Z,34.10
2019-01-24T19:23:56.789Z,31.90
2019-01-24T19:26:23.356Z,31.30
2019-01-24T19:28:50.102Z,31.47
2019-01-24T19:31:16.812Z,31.43
2019-01-24T19:33:46.308Z,30.60
2019-01-24T19:36:15.999Z,30.10
2019-01-24T19:38:45.174Z,31.93
2019-01-24T19:41:14.470Z,31.27
2019-01-24T19:43:43.752Z,31.17
2019-01-24T19:46:10.621Z,31.63
2019-01-24T19:48:40.576Z,32.00
2019-01-24T19:51:07.392Z,30.40
2019-01-24T19:53:34.966Z,30.20
2019-01-24T19:56:06.139Z,29.90
2019-01-24T19:58:37.578Z,28.47
2019-01-24T20:01:09.877Z,29.20
2019-01-24T20:03:37.152Z,29.17
2019-01-24T20:06:10.157Z,31.40
2019-01-24T20:08:36.995Z,30.87
2019-01-24T20:11:06.864Z,29.90
2019-01-24T20:13:36.845Z,29.07
2019-01-24T20:16:07.215Z,33.43
2019-01-24T20:18:37.034Z,32.37
2019-01-24T20:21:06.891Z,33.60
2019-01-24T20:23:37.013Z,33.43
2019-01-24T20:26:09.825Z,32.73
2019-01-24T20:28:37.819Z,32.93
2019-01-24T20:31:08.352Z,32.43
2019-01-24T20:33:36.385Z,32.37
2019-01-24T20:36:07.811Z,33.53
2019-01-24T20:38:37.919Z,32.17
2019-01-24T20:41:05.177Z,34.40
2019-01-24T20:43:36.858Z,33.05
2019-01-24T20:46:04.285Z,32.83
2019-01-24T20:48:34.323Z,32.07
2019-01-24T20:51:04.170Z,34.60
2019-01-24T20:53:31.559Z,34.67
2019-01-24T20:55:58.342Z,32.83
2019-01-24T20:58:33.914Z,31.53
2019-01-24T21:01:06.600Z,33.50
2019-01-24T21:03:35.485Z,33.17
2019-01-24T21:06:04.310Z,35.33
2019-01-24T21:08:34.192Z,35.03
2019-01-24T21:11:00.658Z,32.17
2019-01-24T21:13:29.667Z,32.70
2019-01-24T21:15:58.433Z,33.10
2019-01-24T21:18:25.457Z,35.43
2019-01-24T21:20:55.499Z,34.20
2019-01-24T21:23:25.243Z,36.10
2019-01-24T21:25:54.490Z,35.17
2019-01-24T21:28:24.344Z,31.90
2019-01-24T21:30:55.450Z,34.93
2019-01-24T21:33:24.703Z,35.63
2019-01-24T21:35:54.766Z,33.73
2019-01-24T21:38:21.859Z,36.13
2019-01-24T21:40:50.245Z,34.50
2019-01-24T21:43:25.530Z,33.43
2019-01-24T21:45:53.268Z,33.67
2019-01-24T21:48:20.002Z,33.20
2019-01-24T21:50:46.751Z,33.70
2019-01-24T21:53:13.413Z,33.20
2019-01-24T21:55:40.236Z,32.27
2019-01-24T21:58:07.562Z,31.53
2019-01-24T22:00:34.280Z,35.20
2019-01-24T22:03:00.987Z,33.47
2019-01-24T22:05:30.636Z,32.93
2019-01-24T22:07:57.310Z,33.80
2019-01-24T22:10:25.249Z,31.63
2019-01-24T22:12:52.218Z,32.10
2019-01-24T22:15:20.815Z,34.27
2019-01-24T22:17:49.562Z,33.63
2019-01-24T22:20:16.695Z,32.30
2019-01-24T22:22:43.711Z,33.57
2019-01-24T22:25:15.926Z,32.87
2019-01-24T22:27:42.543Z,33.53
2019-01-24T22:30:13.577Z,33.13
2019-01-24T22:32:40.121Z,31.87
2019-01-24T22:35:06.937Z,33.43
2019-01-24T22:37:33.916Z,34.57
2019-01-24T22:40:00.994Z,34.50
2019-01-24T22:42:27.801Z,33.07
2019-01-24T22:44:55.902Z,33.40
2019-01-24T22:47:22.568Z,34.03
2019-01-24T22:49:49.132Z,33.87
2019-01-24T22:52:16.062Z,33.97
2019-01-24T22:54:42.735Z,33.37
2019-01-24T22:57:09.227Z,30.47
2019-01-24T22:59:36.950Z,34.53
2019-01-24T23:02:25.938Z,31.87
2019-01-24T23:04:52.543Z,32.13
2019-01-24T23:07:19.530Z,31.73
2019-01-24T23:09:46.422Z,33.90
2019-01-24T23:12:13.063Z,33.27
2019-01-24T23:14:39.608Z,32.67
2019-01-24T23:17:06.967Z,33.33
2019-01-24T23:19:33.618Z,36.40
2019-01-24T23:22:00.231Z,35.63
2019-01-24T23:24:28.885Z,33.87
2019-01-24T23:26:55.495Z,32.73
2019-01-24T23:29:22.117Z,32.10
2019-01-24T23:31:49.825Z,35.13
2019-01-24T23:34:16.951Z,37.90
2019-01-24T23:36:43.903Z,35.13
2019-01-24T23:39:10.759Z,34.90
2019-01-24T23:41:37.523Z,34.70
2019-01-24T23:44:04.784Z,33.67
2019-01-24T23:46:31.364Z,32.93
2019-01-24T23:48:57.853Z,31.33
2019-01-24T23:51:24.514Z,35.33
2019-01-24T23:53:51.486Z,35.43
2019-01-24T23:56:18.234Z,34.13
2019-01-24T23:58:44.767Z,32.17
